sensor_id;sensor_type;location;lat;lon;timestamp;temperature;humidity
18934;DHT22;9599;53.706;10.384;2023-04-22T00:00:56;9.80;99.90
18934;DHT22;9599;53.706;10.384;2023-04-22T00:03:25;9.80;99.90
18934;DHT22;9599;53.706;10.384;2023-04-22T00:05:53;9.80;99.90
18934;DHT22;9599;53.706;10.384;2023-04-22T00:08:23;9.70;99.90
18934;DHT22;9599;53.706;10.384;2023-04-22T00:10:51;9.80;99.90
18934;DHT22;9599;53.706;10.384;2023-04-22T00:13:19;9.70;99.90
18934;DHT22;9599;53.706;10.384;2023-04-22T00:15:47;9.70;99.90
18934;DHT22;9599;53.706;10.384;2023-04-22T00:18:14;9.70;99.90
18934;DHT22;9599;53.706;10.384;2023-04-22T00:20:43;9.70;99.90
18934;DHT22;9599;53.706;10.384;2023-04-22T00:23:11;9.70;99.90
18934;DHT22;9599;53.706;10.384;2023-04-22T00:25:42;9.60;99.90
18934;DHT22;9599;53.706;10.384;2023-04-22T00:28:10;9.70;99.90
18934;DHT22;9599;53.706;10.384;2023-04-22T00:30:38;9.60;99.90
18934;DHT22;9599;53.706;10.384;2023-04-22T00:33:06;9.70;99.90
18934;DHT22;9599;53.706;10.384;2023-04-22T00:35:34;9.60;99.90
18934;DHT22;9599;53.706;10.384;2023-04-22T00:38:02;9.60;99.90
18934;DHT22;9599;53.706;10.384;2023-04-22T00:40:30;9.60;99.90
18934;DHT22;9599;53.706;10.384;2023-04-22T00:42:59;9.60;99.90
18934;DHT22;9599;53.706;10.384;2023-04-22T00:45:27;9.60;99.90
18934;DHT22;9599;53.706;10.384;2023-04-22T00:47:57;9.60;99.90
18934;DHT22;9599;53.706;10.384;2023-04-22T00:50:25;9.60;99.90
18934;DHT22;9599;53.706;10.384;2023-04-22T00:52:54;9.60;99.90
18934;DHT22;9599;53.706;10.384;2023-04-22T00:55:22;9.50;99.90
18934;DHT22;9599;53.706;10.384;2023-04-22T00:57:51;9.50;99.90
18934;DHT22;9599;53.706;10.384;2023-04-22T01:00:22;9.50;99.90
18934;DHT22;9599;53.706;10.384;2023-04-22T01:02:53;9.50;99.90
18934;DHT22;9599;53.706;10.384;2023-04-22T01:05:22;9.50;99.90
18934;DHT22;9599;53.706;10.384;2023-04-22T01:07:51;9.50;99.90
18934;DHT22;9599;53.706;10.384;2023-04-22T01:10:19;9.50;99.90
18934;DHT22;9599;53.706;10.384;2023-04-22T01:12:47;9.50;99.90
18934;DHT22;9599;53.706;10.384;2023-04-22T01:15:15;9.50;99.90
18934;DHT22;9599;53.706;10.384;2023-04-22T01:17:44;9.40;99.90
18934;DHT22;9599;53.706;10.384;2023-04-22T01:20:12;9.40;99.90
18934;DHT22;9599;53.706;10.384;2023-04-22T01:22:43;9.40;99.90
18934;DHT22;9599;53.706;10.384;2023-04-22T01:25:13;9.40;99.90
18934;DHT22;9599;53.706;10.384;2023-04-22T01:27:41;9.50;99.90
18934;DHT22;9599;53.706;10.384;2023-04-22T01:30:10;9.50;99.90
18934;DHT22;9599;53.706;10.384;2023-04-22T01:32:39;9.50;99.90
18934;DHT22;9599;53.706;10.384;2023-04-22T01:35:07;9.50;99.90
18934;DHT22;9599;53.706;10.384;2023-04-22T01:37:35;9.50;99.90
18934;DHT22;9599;53.706;10.384;2023-04-22T01:40:05;9.60;99.90
18934;DHT22;9599;53.706;10.384;2023-04-22T01:42:37;9.60;99.90
18934;DHT22;9599;53.706;10.384;2023-04-22T01:45:06;9.60;99.90
18934;DHT22;9599;53.706;10.384;2023-04-22T01:47:34;9.60;99.90
18934;DHT22;9599;53.706;10.384;2023-04-22T01:50:03;9.60;99.90
18934;DHT22;9599;53.706;10.384;2023-04-22T01:52:31;9.60;99.90
18934;DHT22;9599;53.706;10.384;2023-04-22T01:54:59;9.60;99.90
18934;DHT22;9599;53.706;10.384;2023-04-22T01:57:28;9.60;99.90
18934;DHT22;9599;53.706;10.384;2023-04-22T01:59:58;9.60;99.90
18934;DHT22;9599;53.706;10.384;2023-04-22T02:02:26;9.60;99.90
18934;DHT22;9599;53.706;10.384;2023-04-22T02:04:56;9.50;99.90
18934;DHT22;9599;53.706;10.384;2023-04-22T02:07:24;9.50;99.90
18934;DHT22;9599;53.706;10.384;2023-04-22T02:09:52;9.60;99.90
18934;DHT22;9599;53.706;10.384;2023-04-22T02:12:20;9.50;99.90
18934;DHT22;9599;53.706;10.384;2023-04-22T02:14:48;9.60;99.90
18934;DHT22;9599;53.706;10.384;2023-04-22T02:17:19;9.60;99.90
18934;DHT22;9599;53.706;10.384;2023-04-22T02:19:47;9.60;99.90
18934;DHT22;9599;53.706;10.384;2023-04-22T02:22:16;9.50;99.90
18934;DHT22;9599;53.706;10.384;2023-04-22T02:24:44;9.50;99.90
18934;DHT22;9599;53.706;10.384;2023-04-22T02:27:12;9.50;99.90
18934;DHT22;9599;53.706;10.384;2023-04-22T02:29:40;9.50;99.90
18934;DHT22;9599;53.706;10.384;2023-04-22T02:32:08;9.50;99.90
18934;DHT22;9599;53.706;10.384;2023-04-22T02:34:37;9.50;99.90
18934;DHT22;9599;53.706;10.384;2023-04-22T02:37:05;9.40;99.90
18934;DHT22;9599;53.706;10.384;2023-04-22T02:39:33;9.40;99.90
18934;DHT22;9599;53.706;10.384;2023-04-22T02:42:01;9.40;99.90
18934;DHT22;9599;53.706;10.384;2023-04-22T02:44:29;9.40;99.90
18934;DHT22;9599;53.706;10.384;2023-04-22T02:46:57;9.40;99.90
18934;DHT22;9599;53.706;10.384;2023-04-22T02:49:25;9.50;99.90
18934;DHT22;9599;53.706;10.384;2023-04-22T02:51:56;9.50;99.90
18934;DHT22;9599;53.706;10.384;2023-04-22T02:54:24;9.50;99.90
18934;DHT22;9599;53.706;10.384;2023-04-22T02:56:52;9.50;99.90
18934;DHT22;9599;53.706;10.384;2023-04-22T02:59:19;9.60;99.90
18934;DHT22;9599;53.706;10.384;2023-04-22T03:01:47;9.60;99.90
18934;DHT22;9599;53.706;10.384;2023-04-22T03:04:29;9.60;99.90
18934;DHT22;9599;53.706;10.384;2023-04-22T03:06:59;9.60;99.90
18934;DHT22;9599;53.706;10.384;2023-04-22T03:09:28;9.60;99.90
18934;DHT22;9599;53.706;10.384;2023-04-22T03:11:56;9.60;99.90
18934;DHT22;9599;53.706;10.384;2023-04-22T03:14:24;9.60;99.90
18934;DHT22;9599;53.706;10.384;2023-04-22T03:16:52;9.60;99.90
18934;DHT22;9599;53.706;10.384;2023-04-22T03:19:21;9.60;99.90
18934;DHT22;9599;53.706;10.384;2023-04-22T03:21:49;9.60;99.90
18934;DHT22;9599;53.706;10.384;2023-04-22T03:24:19;9.60;99.90
18934;DHT22;9599;53.706;10.384;2023-04-22T03:26:50;9.60;99.90
18934;DHT22;9599;53.706;10.384;2023-04-22T03:29:18;9.60;99.90
18934;DHT22;9599;53.706;10.384;2023-04-22T03:31:46;9.60;99.90
18934;DHT22;9599;53.706;10.384;2023-04-22T03:34:13;9.70;99.90
18934;DHT22;9599;53.706;10.384;2023-04-22T03:36:44;9.60;99.90
18934;DHT22;9599;53.706;10.384;2023-04-22T03:39:14;9.60;99.90
18934;DHT22;9599;53.706;10.384;2023-04-22T03:41:45;9.70;99.90
18934;DHT22;9599;53.706;10.384;2023-04-22T03:44:13;9.70;99.90
18934;DHT22;9599;53.706;10.384;2023-04-22T03:46:41;9.70;99.90
18934;DHT22;9599;53.706;10.384;2023-04-22T03:49:18;9.70;99.90
18934;DHT22;9599;53.706;10.384;2023-04-22T03:51:47;9.70;99.90
18934;DHT22;9599;53.706;10.384;2023-04-22T03:54:19;9.70;99.90
18934;DHT22;9599;53.706;10.384;2023-04-22T03:56:51;9.70;99.90
18934;DHT22;9599;53.706;10.384;2023-04-22T03:59:21;9.80;99.90
18934;DHT22;9599;53.706;10.384;2023-04-22T04:01:50;9.80;99.90
18934;DHT22;9599;53.706;10.384;2023-04-22T04:04:21;9.80;99.90
18934;DHT22;9599;53.706;10.384;2023-04-22T04:06:55;9.90;99.90
18934;DHT22;9599;53.706;10.384;2023-04-22T04:09:23;9.90;99.90
18934;DHT22;9599;53.706;10.384;2023-04-22T04:11:53;10.00;99.90
18934;DHT22;9599;53.706;10.384;2023-04-22T04:14:22;10.00;99.90
18934;DHT22;9599;53.706;10.384;2023-04-22T04:16:51;10.00;99.90
18934;DHT22;9599;53.706;10.384;2023-04-22T04:19:28;10.00;99.90
18934;DHT22;9599;53.706;10.384;2023-04-22T04:21:56;10.10;99.90
18934;DHT22;9599;53.706;10.384;2023-04-22T04:24:26;10.10;99.90
18934;DHT22;9599;53.706;10.384;2023-04-22T04:27:02;10.10;99.90
18934;DHT22;9599;53.706;10.384;2023-04-22T04:29:36;10.20;99.90
18934;DHT22;9599;53.706;10.384;2023-04-22T04:32:11;10.20;99.90
18934;DHT22;9599;53.706;10.384;2023-04-22T04:34:40;10.20;99.90
18934;DHT22;9599;53.706;10.384;2023-04-22T04:37:11;10.20;99.90
18934;DHT22;9599;53.706;10.384;2023-04-22T04:40:08;10.20;99.90
18934;DHT22;9599;53.706;10.384;2023-04-22T04:42:48;10.30;99.90
18934;DHT22;9599;53.706;10.384;2023-04-22T04:45:23;10.30;99.90
18934;DHT22;9599;53.706;10.384;2023-04-22T04:47:52;10.30;99.90
18934;DHT22;9599;53.706;10.384;2023-04-22T04:50:25;10.40;99.90
18934;DHT22;9599;53.706;10.384;2023-04-22T04:52:56;10.40;99.90
18934;DHT22;9599;53.706;10.384;2023-04-22T04:55:31;10.40;99.90
18934;DHT22;9599;53.706;10.384;2023-04-22T04:58:04;10.40;99.90
18934;DHT22;9599;53.706;10.384;2023-04-22T05:00:32;10.40;99.90
18934;DHT22;9599;53.706;10.384;2023-04-22T05:03:00;10.50;99.90
18934;DHT22;9599;53.706;10.384;2023-04-22T05:05:29;10.50;99.90
18934;DHT22;9599;53.706;10.384;2023-04-22T05:07:57;10.60;99.90
18934;DHT22;9599;53.706;10.384;2023-04-22T05:10:26;10.60;99.90
18934;DHT22;9599;53.706;10.384;2023-04-22T05:12:55;10.70;99.90
18934;DHT22;9599;53.706;10.384;2023-04-22T05:15:26;10.70;99.90
18934;DHT22;9599;53.706;10.384;2023-04-22T05:17:54;10.70;99.90
18934;DHT22;9599;53.706;10.384;2023-04-22T05:20:22;10.80;99.90
18934;DHT22;9599;53.706;10.384;2023-04-22T05:22:50;10.80;99.90
18934;DHT22;9599;53.706;10.384;2023-04-22T05:25:19;10.90;99.90
18934;DHT22;9599;53.706;10.384;2023-04-22T05:27:55;11.00;99.90
18934;DHT22;9599;53.706;10.384;2023-04-22T05:30:26;11.00;99.90
18934;DHT22;9599;53.706;10.384;2023-04-22T05:32:54;11.20;99.90
18934;DHT22;9599;53.706;10.384;2023-04-22T05:35:22;11.30;99.90
18934;DHT22;9599;53.706;10.384;2023-04-22T05:37:51;11.40;99.90
18934;DHT22;9599;53.706;10.384;2023-04-22T05:40:19;11.50;99.90
18934;DHT22;9599;53.706;10.384;2023-04-22T05:42:47;11.70;99.90
18934;DHT22;9599;53.706;10.384;2023-04-22T05:45:15;11.90;99.90
18934;DHT22;9599;53.706;10.384;2023-04-22T05:47:45;12.00;99.90
18934;DHT22;9599;53.706;10.384;2023-04-22T05:50:14;12.10;99.90
18934;DHT22;9599;53.706;10.384;2023-04-22T05:52:51;12.30;99.90
18934;DHT22;9599;53.706;10.384;2023-04-22T05:55:20;12.40;99.90
18934;DHT22;9599;53.706;10.384;2023-04-22T05:57:47;12.50;99.90
18934;DHT22;9599;53.706;10.384;2023-04-22T06:00:37;12.60;99.90
18934;DHT22;9599;53.706;10.384;2023-04-22T06:03:24;12.80;99.90
18934;DHT22;9599;53.706;10.384;2023-04-22T06:05:52;13.00;99.90
18934;DHT22;9599;53.706;10.384;2023-04-22T06:08:20;13.10;99.90
18934;DHT22;9599;53.706;10.384;2023-04-22T06:10:49;13.30;99.90
18934;DHT22;9599;53.706;10.384;2023-04-22T06:13:17;13.50;99.90
18934;DHT22;9599;53.706;10.384;2023-04-22T06:15:45;13.60;99.90
18934;DHT22;9599;53.706;10.384;2023-04-22T06:18:13;13.70;99.90
18934;DHT22;9599;53.706;10.384;2023-04-22T06:20:42;13.90;99.90
18934;DHT22;9599;53.706;10.384;2023-04-22T06:23:10;14.10;99.90
18934;DHT22;9599;53.706;10.384;2023-04-22T06:25:38;14.20;99.90
18934;DHT22;9599;53.706;10.384;2023-04-22T06:28:06;14.40;99.90
18934;DHT22;9599;53.706;10.384;2023-04-22T06:30:36;14.60;99.90
18934;DHT22;9599;53.706;10.384;2023-04-22T06:33:04;14.80;99.90
18934;DHT22;9599;53.706;10.384;2023-04-22T06:35:32;15.00;99.90
18934;DHT22;9599;53.706;10.384;2023-04-22T06:38:02;15.10;99.90
18934;DHT22;9599;53.706;10.384;2023-04-22T06:40:38;15.20;99.90
18934;DHT22;9599;53.706;10.384;2023-04-22T06:43:21;15.30;99.90
18934;DHT22;9599;53.706;10.384;2023-04-22T06:46:08;15.50;99.90
18934;DHT22;9599;53.706;10.384;2023-04-22T06:49:02;15.50;99.90
18934;DHT22;9599;53.706;10.384;2023-04-22T06:51:48;15.50;99.90
18934;DHT22;9599;53.706;10.384;2023-04-22T06:54:17;15.60;99.90
18934;DHT22;9599;53.706;10.384;2023-04-22T06:56:46;15.60;99.90
18934;DHT22;9599;53.706;10.384;2023-04-22T06:59:14;15.60;99.90
18934;DHT22;9599;53.706;10.384;2023-04-22T07:01:42;15.60;99.90
18934;DHT22;9599;53.706;10.384;2023-04-22T07:04:10;15.80;99.90
18934;DHT22;9599;53.706;10.384;2023-04-22T07:06:38;15.80;99.90
18934;DHT22;9599;53.706;10.384;2023-04-22T07:09:06;15.90;99.90
18934;DHT22;9599;53.706;10.384;2023-04-22T07:11:37;16.00;99.90
18934;DHT22;9599;53.706;10.384;2023-04-22T07:14:11;16.20;99.90
18934;DHT22;9599;53.706;10.384;2023-04-22T07:16:39;16.40;99.90
18934;DHT22;9599;53.706;10.384;2023-04-22T07:19:07;16.50;99.90
18934;DHT22;9599;53.706;10.384;2023-04-22T07:21:34;16.60;99.90
18934;DHT22;9599;53.706;10.384;2023-04-22T07:24:03;16.70;99.90
18934;DHT22;9599;53.706;10.384;2023-04-22T07:26:31;16.80;99.90
18934;DHT22;9599;53.706;10.384;2023-04-22T07:29:01;16.90;99.90
18934;DHT22;9599;53.706;10.384;2023-04-22T07:31:29;17.10;99.90
18934;DHT22;9599;53.706;10.384;2023-04-22T07:33:57;17.10;99.90
18934;DHT22;9599;53.706;10.384;2023-04-22T07:36:25;17.30;99.90
18934;DHT22;9599;53.706;10.384;2023-04-22T07:38:53;17.50;99.90
18934;DHT22;9599;53.706;10.384;2023-04-22T07:41:20;17.60;99.90
18934;DHT22;9599;53.706;10.384;2023-04-22T07:43:48;17.90;99.90
18934;DHT22;9599;53.706;10.384;2023-04-22T07:46:18;18.10;99.90
18934;DHT22;9599;53.706;10.384;2023-04-22T07:48:46;18.30;99.90
18934;DHT22;9599;53.706;10.384;2023-04-22T07:51:14;18.40;99.90
18934;DHT22;9599;53.706;10.384;2023-04-22T07:53:43;18.50;99.90
18934;DHT22;9599;53.706;10.384;2023-04-22T07:56:11;18.60;99.90
18934;DHT22;9599;53.706;10.384;2023-04-22T07:58:39;18.70;99.90
18934;DHT22;9599;53.706;10.384;2023-04-22T08:01:07;18.80;99.90
18934;DHT22;9599;53.706;10.384;2023-04-22T08:03:37;18.90;99.90
18934;DHT22;9599;53.706;10.384;2023-04-22T08:06:05;18.90;99.90
18934;DHT22;9599;53.706;10.384;2023-04-22T08:08:33;18.90;99.90
18934;DHT22;9599;53.706;10.384;2023-04-22T08:11:01;19.20;99.90
18934;DHT22;9599;53.706;10.384;2023-04-22T08:13:29;19.30;99.90
18934;DHT22;9599;53.706;10.384;2023-04-22T08:15:57;19.50;99.90
18934;DHT22;9599;53.706;10.384;2023-04-22T08:18:25;19.70;99.90
18934;DHT22;9599;53.706;10.384;2023-04-22T08:20:54;19.90;99.90
18934;DHT22;9599;53.706;10.384;2023-04-22T08:23:22;19.90;99.90
18934;DHT22;9599;53.706;10.384;2023-04-22T08:25:50;19.90;99.90
18934;DHT22;9599;53.706;10.384;2023-04-22T08:28:19;19.80;99.90
18934;DHT22;9599;53.706;10.384;2023-04-22T08:30:47;19.80;99.90
18934;DHT22;9599;53.706;10.384;2023-04-22T08:33:15;19.90;99.90
18934;DHT22;9599;53.706;10.384;2023-04-22T08:35:43;20.10;99.90
18934;DHT22;9599;53.706;10.384;2023-04-22T08:38:12;20.20;99.90
18934;DHT22;9599;53.706;10.384;2023-04-22T08:40:41;20.20;99.90
18934;DHT22;9599;53.706;10.384;2023-04-22T08:43:09;20.30;99.90
18934;DHT22;9599;53.706;10.384;2023-04-22T08:45:38;20.40;99.90
18934;DHT22;9599;53.706;10.384;2023-04-22T08:48:08;20.40;99.90
18934;DHT22;9599;53.706;10.384;2023-04-22T08:50:37;20.40;99.90
18934;DHT22;9599;53.706;10.384;2023-04-22T08:53:06;20.40;99.90
18934;DHT22;9599;53.706;10.384;2023-04-22T08:55:35;20.30;99.90
18934;DHT22;9599;53.706;10.384;2023-04-22T08:58:03;20.20;99.90
18934;DHT22;9599;53.706;10.384;2023-04-22T09:00:32;20.20;99.90
18934;DHT22;9599;53.706;10.384;2023-04-22T09:03:01;20.30;99.90
18934;DHT22;9599;53.706;10.384;2023-04-22T09:05:31;20.50;99.90
18934;DHT22;9599;53.706;10.384;2023-04-22T09:08:01;20.60;99.90
18934;DHT22;9599;53.706;10.384;2023-04-22T09:10:30;20.70;99.90
18934;DHT22;9599;53.706;10.384;2023-04-22T09:13:02;20.80;99.90
18934;DHT22;9599;53.706;10.384;2023-04-22T09:15:31;20.80;99.90
18934;DHT22;9599;53.706;10.384;2023-04-22T09:18:01;20.90;99.90
18934;DHT22;9599;53.706;10.384;2023-04-22T09:20:30;21.00;99.90
18934;DHT22;9599;53.706;10.384;2023-04-22T09:23:02;21.10;99.90
18934;DHT22;9599;53.706;10.384;2023-04-22T09:25:32;21.20;99.90
18934;DHT22;9599;53.706;10.384;2023-04-22T09:28:02;21.30;99.90
18934;DHT22;9599;53.706;10.384;2023-04-22T09:30:31;21.40;99.90
18934;DHT22;9599;53.706;10.384;2023-04-22T09:33:00;21.40;99.90
18934;DHT22;9599;53.706;10.384;2023-04-22T09:35:30;21.60;99.90
18934;DHT22;9599;53.706;10.384;2023-04-22T09:37:59;21.90;99.90
18934;DHT22;9599;53.706;10.384;2023-04-22T09:40:29;21.90;99.90
18934;DHT22;9599;53.706;10.384;2023-04-22T09:42:59;21.90;99.90
18934;DHT22;9599;53.706;10.384;2023-04-22T09:45:31;22.10;99.90
18934;DHT22;9599;53.706;10.384;2023-04-22T09:48:02;22.20;99.90
18934;DHT22;9599;53.706;10.384;2023-04-22T09:50:30;22.40;99.90
18934;DHT22;9599;53.706;10.384;2023-04-22T09:52:59;22.50;99.90
18934;DHT22;9599;53.706;10.384;2023-04-22T09:55:29;22.60;99.90
18934;DHT22;9599;53.706;10.384;2023-04-22T09:57:57;22.70;99.90
18934;DHT22;9599;53.706;10.384;2023-04-22T10:00:29;22.80;99.90
18934;DHT22;9599;53.706;10.384;2023-04-22T10:02:57;22.90;99.90
18934;DHT22;9599;53.706;10.384;2023-04-22T10:05:25;22.80;99.90
18934;DHT22;9599;53.706;10.384;2023-04-22T10:07:55;22.90;99.90
18934;DHT22;9599;53.706;10.384;2023-04-22T10:10:23;23.00;99.90
18934;DHT22;9599;53.706;10.384;2023-04-22T10:12:52;23.20;99.90
18934;DHT22;9599;53.706;10.384;2023-04-22T10:15:20;23.30;99.90
18934;DHT22;9599;53.706;10.384;2023-04-22T10:17:54;23.60;99.90
18934;DHT22;9599;53.706;10.384;2023-04-22T10:20:22;23.50;99.90
18934;DHT22;9599;53.706;10.384;2023-04-22T10:22:51;23.50;99.90
18934;DHT22;9599;53.706;10.384;2023-04-22T10:25:21;23.50;99.90
18934;DHT22;9599;53.706;10.384;2023-04-22T10:27:53;23.50;99.90
18934;DHT22;9599;53.706;10.384;2023-04-22T10:30:29;23.60;99.90
18934;DHT22;9599;53.706;10.384;2023-04-22T10:36:11;23.80;99.90
18934;DHT22;9599;53.706;10.384;2023-04-22T10:39:13;23.90;99.90
18934;DHT22;9599;53.706;10.384;2023-04-22T10:41:50;23.80;99.90
18934;DHT22;9599;53.706;10.384;2023-04-22T10:44:19;23.90;99.90
18934;DHT22;9599;53.706;10.384;2023-04-22T10:47:00;23.90;99.90
18934;DHT22;9599;53.706;10.384;2023-04-22T10:49:29;23.90;99.90
18934;DHT22;9599;53.706;10.384;2023-04-22T10:52:00;23.90;99.90
18934;DHT22;9599;53.706;10.384;2023-04-22T10:54:57;24.00;99.90
18934;DHT22;9599;53.706;10.384;2023-04-22T10:57:30;23.90;99.90
18934;DHT22;9599;53.706;10.384;2023-04-22T11:00:23;24.00;99.90
18934;DHT22;9599;53.706;10.384;2023-04-22T11:03:12;24.10;99.90
18934;DHT22;9599;53.706;10.384;2023-04-22T11:05:41;24.10;99.90
18934;DHT22;9599;53.706;10.384;2023-04-22T11:08:14;24.20;99.90
18934;DHT22;9599;53.706;10.384;2023-04-22T11:10:47;24.10;99.90
18934;DHT22;9599;53.706;10.384;2023-04-22T11:13:17;24.00;99.90
18934;DHT22;9599;53.706;10.384;2023-04-22T11:15:47;23.90;99.90
18934;DHT22;9599;53.706;10.384;2023-04-22T11:18:20;23.90;99.90
18934;DHT22;9599;53.706;10.384;2023-04-22T11:20:49;23.80;99.90
18934;DHT22;9599;53.706;10.384;2023-04-22T11:23:24;23.70;99.90
18934;DHT22;9599;53.706;10.384;2023-04-22T11:25:56;23.80;99.90
18934;DHT22;9599;53.706;10.384;2023-04-22T11:28:24;23.90;99.90
18934;DHT22;9599;53.706;10.384;2023-04-22T11:30:59;23.90;99.90
18934;DHT22;9599;53.706;10.384;2023-04-22T11:33:27;24.00;99.90
18934;DHT22;9599;53.706;10.384;2023-04-22T11:35:55;24.10;99.90
18934;DHT22;9599;53.706;10.384;2023-04-22T11:38:25;24.20;99.90
18934;DHT22;9599;53.706;10.384;2023-04-22T11:40:54;24.20;99.90
18934;DHT22;9599;53.706;10.384;2023-04-22T11:43:23;24.00;99.90
18934;DHT22;9599;53.706;10.384;2023-04-22T11:45:54;23.90;99.90
18934;DHT22;9599;53.706;10.384;2023-04-22T11:48:22;23.90;99.90
18934;DHT22;9599;53.706;10.384;2023-04-22T11:51:06;23.90;99.90
18934;DHT22;9599;53.706;10.384;2023-04-22T11:53:35;23.90;99.90
18934;DHT22;9599;53.706;10.384;2023-04-22T11:56:05;24.00;99.90
18934;DHT22;9599;53.706;10.384;2023-04-22T11:58:32;24.20;99.90
18934;DHT22;9599;53.706;10.384;2023-04-22T12:01:05;24.10;99.90
18934;DHT22;9599;53.706;10.384;2023-04-22T12:03:33;24.00;99.90
18934;DHT22;9599;53.706;10.384;2023-04-22T12:06:03;24.00;99.90
18934;DHT22;9599;53.706;10.384;2023-04-22T12:08:32;23.80;99.90
18934;DHT22;9599;53.706;10.384;2023-04-22T12:11:03;23.80;99.90
18934;DHT22;9599;53.706;10.384;2023-04-22T12:13:38;23.90;99.90
18934;DHT22;9599;53.706;10.384;2023-04-22T12:16:09;23.80;99.90
18934;DHT22;9599;53.706;10.384;2023-04-22T12:18:39;23.80;99.90
18934;DHT22;9599;53.706;10.384;2023-04-22T12:21:08;23.70;99.90
18934;DHT22;9599;53.706;10.384;2023-04-22T12:23:40;23.70;99.90
18934;DHT22;9599;53.706;10.384;2023-04-22T12:26:11;23.60;99.90
18934;DHT22;9599;53.706;10.384;2023-04-22T12:28:40;23.60;99.90
18934;DHT22;9599;53.706;10.384;2023-04-22T12:31:09;23.60;99.90
18934;DHT22;9599;53.706;10.384;2023-04-22T12:33:38;23.60;99.90
18934;DHT22;9599;53.706;10.384;2023-04-22T12:36:06;23.60;99.90
18934;DHT22;9599;53.706;10.384;2023-04-22T12:38:35;23.70;99.90
18934;DHT22;9599;53.706;10.384;2023-04-22T12:41:04;23.70;99.90
18934;DHT22;9599;53.706;10.384;2023-04-22T12:43:33;23.60;99.90
18934;DHT22;9599;53.706;10.384;2023-04-22T12:46:03;23.60;99.90
18934;DHT22;9599;53.706;10.384;2023-04-22T12:48:31;23.50;99.90
18934;DHT22;9599;53.706;10.384;2023-04-22T12:50:59;23.60;99.90
18934;DHT22;9599;53.706;10.384;2023-04-22T12:53:27;23.60;99.90
18934;DHT22;9599;53.706;10.384;2023-04-22T12:55:55;23.60;99.90
18934;DHT22;9599;53.706;10.384;2023-04-22T12:58:24;23.50;99.90
18934;DHT22;9599;53.706;10.384;2023-04-22T13:00:54;23.50;99.90
18934;DHT22;9599;53.706;10.384;2023-04-22T13:03:22;23.50;99.90
18934;DHT22;9599;53.706;10.384;2023-04-22T13:05:50;23.50;99.90
18934;DHT22;9599;53.706;10.384;2023-04-22T13:08:18;23.40;99.90
18934;DHT22;9599;53.706;10.384;2023-04-22T13:10:47;23.30;99.90
18934;DHT22;9599;53.706;10.384;2023-04-22T13:13:14;23.30;99.90
18934;DHT22;9599;53.706;10.384;2023-04-22T13:15:45;23.40;99.90
18934;DHT22;9599;53.706;10.384;2023-04-22T13:18:17;23.50;99.90
18934;DHT22;9599;53.706;10.384;2023-04-22T13:20:45;23.60;99.90
18934;DHT22;9599;53.706;10.384;2023-04-22T13:23:13;23.60;99.90
18934;DHT22;9599;53.706;10.384;2023-04-22T13:25:42;23.50;99.90
18934;DHT22;9599;53.706;10.384;2023-04-22T13:28:10;23.20;99.90
18934;DHT22;9599;53.706;10.384;2023-04-22T13:30:38;23.10;99.90
18934;DHT22;9599;53.706;10.384;2023-04-22T13:33:06;23.10;99.90
18934;DHT22;9599;53.706;10.384;2023-04-22T13:35:35;23.00;99.90
18934;DHT22;9599;53.706;10.384;2023-04-22T13:38:04;23.10;99.90
18934;DHT22;9599;53.706;10.384;2023-04-22T13:40:32;23.20;99.90
18934;DHT22;9599;53.706;10.384;2023-04-22T13:42:59;23.30;99.90
18934;DHT22;9599;53.706;10.384;2023-04-22T13:45:27;23.40;99.90
18934;DHT22;9599;53.706;10.384;2023-04-22T13:47:55;23.60;99.90
18934;DHT22;9599;53.706;10.384;2023-04-22T13:50:23;23.60;99.90
18934;DHT22;9599;53.706;10.384;2023-04-22T13:52:53;23.60;99.90
18934;DHT22;9599;53.706;10.384;2023-04-22T13:55:20;23.50;99.90
18934;DHT22;9599;53.706;10.384;2023-04-22T13:57:49;23.50;99.90
18934;DHT22;9599;53.706;10.384;2023-04-22T14:00:18;23.60;99.90
18934;DHT22;9599;53.706;10.384;2023-04-22T14:02:46;23.70;99.90
18934;DHT22;9599;53.706;10.384;2023-04-22T14:05:15;23.80;99.90
18934;DHT22;9599;53.706;10.384;2023-04-22T14:07:43;23.80;99.90
18934;DHT22;9599;53.706;10.384;2023-04-22T14:10:12;23.80;99.90
18934;DHT22;9599;53.706;10.384;2023-04-22T14:12:41;23.80;99.90
18934;DHT22;9599;53.706;10.384;2023-04-22T14:15:09;23.80;99.90
18934;DHT22;9599;53.706;10.384;2023-04-22T14:17:37;23.80;99.90
18934;DHT22;9599;53.706;10.384;2023-04-22T14:20:07;23.90;99.90
18934;DHT22;9599;53.706;10.384;2023-04-22T14:22:36;23.90;99.90
18934;DHT22;9599;53.706;10.384;2023-04-22T14:25:06;23.90;99.90
18934;DHT22;9599;53.706;10.384;2023-04-22T14:27:35;24.00;99.90
18934;DHT22;9599;53.706;10.384;2023-04-22T14:30:04;24.10;99.90
18934;DHT22;9599;53.706;10.384;2023-04-22T14:32:34;24.20;99.90
18934;DHT22;9599;53.706;10.384;2023-04-22T14:35:02;24.20;99.90
18934;DHT22;9599;53.706;10.384;2023-04-22T14:37:30;24.20;99.90
18934;DHT22;9599;53.706;10.384;2023-04-22T14:39:59;24.20;99.90
18934;DHT22;9599;53.706;10.384;2023-04-22T14:42:27;24.20;99.90
18934;DHT22;9599;53.706;10.384;2023-04-22T14:44:56;24.10;99.90
18934;DHT22;9599;53.706;10.384;2023-04-22T14:47:24;24.10;99.90
18934;DHT22;9599;53.706;10.384;2023-04-22T14:49:52;24.00;99.90
18934;DHT22;9599;53.706;10.384;2023-04-22T14:52:20;24.00;99.90
18934;DHT22;9599;53.706;10.384;2023-04-22T14:54:48;24.00;99.90
18934;DHT22;9599;53.706;10.384;2023-04-22T14:57:17;24.00;99.90
18934;DHT22;9599;53.706;10.384;2023-04-22T14:59:46;24.00;99.90
18934;DHT22;9599;53.706;10.384;2023-04-22T15:02:15;23.90;99.90
18934;DHT22;9599;53.706;10.384;2023-04-22T15:04:44;23.70;99.90
18934;DHT22;9599;53.706;10.384;2023-04-22T15:07:12;23.50;99.90
18934;DHT22;9599;53.706;10.384;2023-04-22T15:09:40;23.30;99.90
18934;DHT22;9599;53.706;10.384;2023-04-22T15:12:08;23.10;99.90
18934;DHT22;9599;53.706;10.384;2023-04-22T15:14:37;23.10;99.90
18934;DHT22;9599;53.706;10.384;2023-04-22T15:17:05;23.00;99.90
18934;DHT22;9599;53.706;10.384;2023-04-22T15:19:35;23.00;99.90
18934;DHT22;9599;53.706;10.384;2023-04-22T15:22:03;23.00;99.90
18934;DHT22;9599;53.706;10.384;2023-04-22T15:24:31;23.00;99.90
18934;DHT22;9599;53.706;10.384;2023-04-22T15:26:59;23.00;99.90
18934;DHT22;9599;53.706;10.384;2023-04-22T15:29:28;23.00;99.90
18934;DHT22;9599;53.706;10.384;2023-04-22T15:31:59;23.00;99.90
18934;DHT22;9599;53.706;10.384;2023-04-22T15:34:27;23.00;99.90
18934;DHT22;9599;53.706;10.384;2023-04-22T15:36:57;23.00;99.90
18934;DHT22;9599;53.706;10.384;2023-04-22T15:39:25;22.90;99.90
18934;DHT22;9599;53.706;10.384;2023-04-22T15:41:55;22.80;99.90
18934;DHT22;9599;53.706;10.384;2023-04-22T15:44:23;22.80;99.90
18934;DHT22;9599;53.706;10.384;2023-04-22T15:46:51;22.70;99.90
18934;DHT22;9599;53.706;10.384;2023-04-22T15:49:19;22.60;99.90
18934;DHT22;9599;53.706;10.384;2023-04-22T15:51:47;22.60;99.90
18934;DHT22;9599;53.706;10.384;2023-04-22T15:54:16;22.50;99.90